KLOU

Bowman Field Airport

Louisville, Kentucky, USA
METAR KLOU 181253Z 00000KT 6SM BR CLR M01/M03 A3025 RMK AO2 SLP247 I1000 T10111033
Observed Flight Rules
Dec-18 @ 12:53 UTC (37 minutes ago) Visual Flight Rules
Visibility Clouds Conditions
6 miles
  • Clear skies
  • Mist
Temperatures Readings
Current -1°C / 30°F
Dewpoint -3°C / 27°F
Humidity 86%
Altimeter 30.25" Hg
Pressure 1024.7 hPa
Elevation 164
METAR KLOU 181253Z 00000KT 6SM BR CLR M01/M03 A3025 RMK AO2 SLP247 I1000 T10111033
Observed Flight Rules
Dec-18 @ 12:53 UTC
(37 minutes ago)
VFR
Clouds
  • Clear skies
Conditions
  • Mist
Temperature Dewpoint
-1°C / 30°F -3°C / 27°F
Humidity Altimeter Pressure
86% 30.25" Hg 1024.7 hPa